createdAt,value
2017-11-03T00:00:23.073Z,1011.7
2017-11-03T00:01:24.685Z,1011.7
2017-11-03T00:02:26.298Z,1011.7
2017-11-03T00:03:27.909Z,1011.7
2017-11-03T00:04:29.529Z,1011.7
2017-11-03T00:05:31.140Z,1011.7
2017-11-03T00:06:32.757Z,1011.7
2017-11-03T00:07:34.369Z,1011.7
2017-11-03T00:08:35.984Z,1011.7
2017-11-03T00:09:37.619Z,1011.7
2017-11-03T00:10:39.234Z,1011.7
2017-11-03T00:11:40.849Z,1011.8
2017-11-03T00:12:42.464Z,1011.8
2017-11-03T00:13:44.078Z,1011.8
2017-11-03T00:14:45.691Z,1011.8
2017-11-03T00:15:47.303Z,1011.8
2017-11-03T00:16:48.917Z,1011.8
2017-11-03T00:17:50.532Z,1011.8
2017-11-03T00:18:52.147Z,1011.8
2017-11-03T00:19:53.763Z,1011.8
2017-11-03T00:20:55.373Z,1011.7
2017-11-03T00:21:56.989Z,1011.7
2017-11-03T00:22:58.603Z,1011.7
2017-11-03T00:24:00.218Z,1011.7
2017-11-03T00:25:01.830Z,1011.7
2017-11-03T00:26:03.448Z,1011.8
2017-11-03T00:27:05.059Z,1011.8
2017-11-03T00:28:06.675Z,1011.8
2017-11-03T00:29:08.288Z,1011.8
2017-11-03T00:30:09.900Z,1011.8
2017-11-03T00:31:11.513Z,1011.7
2017-11-03T00:32:13.127Z,1011.8
2017-11-03T00:33:14.744Z,1011.7
2017-11-03T00:34:16.359Z,1011.7
2017-11-03T00:35:17.972Z,1011.7
2017-11-03T00:36:19.597Z,1011.7
2017-11-03T00:37:21.197Z,1011.7
2017-11-03T00:38:22.811Z,1011.7
2017-11-03T00:39:24.426Z,1011.7
2017-11-03T00:40:26.043Z,1011.7
2017-11-03T00:41:27.660Z,1011.7
2017-11-03T00:42:29.274Z,1011.7
2017-11-03T00:43:30.883Z,1011.7
2017-11-03T00:44:32.495Z,1011.6
2017-11-03T00:45:34.108Z,1011.6
2017-11-03T00:46:35.721Z,1011.6
2017-11-03T00:47:37.335Z,1011.6
2017-11-03T00:48:38.954Z,1011.6
2017-11-03T00:49:40.571Z,1011.6
2017-11-03T00:50:42.183Z,1011.6
2017-11-03T00:51:43.798Z,1011.6
2017-11-03T00:52:45.409Z,1011.6
2017-11-03T00:53:47.023Z,1011.6
2017-11-03T00:54:48.636Z,1011.7
2017-11-03T00:55:50.256Z,1011.6
2017-11-03T00:56:51.871Z,1011.6
2017-11-03T00:57:53.483Z,1011.7
2017-11-03T00:58:55.096Z,1011.7
2017-11-03T00:59:56.709Z,1011.6
2017-11-03T01:00:58.323Z,1011.7
2017-11-03T01:01:59.939Z,1011.6
2017-11-03T01:03:01.574Z,1011.7
2017-11-03T01:04:03.170Z,1011.7
2017-11-03T01:05:04.783Z,1011.7
2017-11-03T01:06:06.399Z,1011.7
2017-11-03T01:07:08.012Z,1011.7
2017-11-03T01:08:09.625Z,1011.8
2017-11-03T01:09:11.241Z,1011.7
2017-11-03T01:10:12.857Z,1011.7
2017-11-03T01:11:14.477Z,1011.7
2017-11-03T01:12:16.086Z,1011.7
2017-11-03T01:13:17.700Z,1011.7
2017-11-03T01:14:19.313Z,1011.7
2017-11-03T01:15:20.926Z,1011.7
2017-11-03T01:16:22.544Z,1011.7
2017-11-03T01:17:24.157Z,1011.7
2017-11-03T01:18:25.774Z,1011.7
2017-11-03T01:19:27.386Z,1011.7
2017-11-03T01:20:28.998Z,1011.7
2017-11-03T01:21:30.614Z,1011.7
2017-11-03T01:22:32.226Z,1011.7
2017-11-03T01:23:33.841Z,1011.7
2017-11-03T01:24:35.459Z,1011.7
2017-11-03T01:25:37.088Z,1011.7
2017-11-03T01:26:38.699Z,1011.7
2017-11-03T01:27:40.310Z,1011.7
2017-11-03T01:28:41.926Z,1011.7
2017-11-03T01:29:43.540Z,1011.7
2017-11-03T01:30:45.156Z,1011.7
2017-11-03T01:31:46.770Z,1011.7
2017-11-03T01:32:48.384Z,1011.7
2017-11-03T01:33:49.997Z,1011.7
2017-11-03T01:34:51.607Z,1011.7
2017-11-03T01:35:53.221Z,1011.7
2017-11-03T01:36:54.838Z,1011.7
2017-11-03T01:37:56.454Z,1011.7
2017-11-03T01:38:58.065Z,1011.7
2017-11-03T01:39:59.681Z,1011.8
2017-11-03T01:41:01.292Z,1011.7
2017-11-03T01:42:02.906Z,1011.7
2017-11-03T01:43:04.520Z,1011.8
2017-11-03T01:44:06.135Z,1011.7
2017-11-03T01:45:07.752Z,1011.7
2017-11-03T01:46:09.366Z,1011.7
2017-11-03T01:47:10.980Z,1011.7
2017-11-03T01:48:12.592Z,1011.7
2017-11-03T01:49:14.207Z,1011.7
2017-11-03T01:50:15.822Z,1011.7
2017-11-03T01:51:17.437Z,1011.7
2017-11-03T01:52:19.054Z,1011.7
2017-11-03T01:53:20.668Z,1011.8
2017-11-03T01:54:22.283Z,1011.7
2017-11-03T01:55:23.893Z,1011.7
2017-11-03T01:56:25.508Z,1011.7
2017-11-03T01:57:27.121Z,1011.7
2017-11-03T01:58:28.735Z,1011.7
2017-11-03T01:59:30.352Z,1011.7
2017-11-03T02:00:31.968Z,1011.7
2017-11-03T02:01:33.583Z,1011.7
2017-11-03T02:02:35.195Z,1011.7
2017-11-03T02:03:36.808Z,1011.7
2017-11-03T02:04:38.422Z,1011.7
2017-11-03T02:05:40.038Z,1011.7
2017-11-03T02:06:41.655Z,1011.7
2017-11-03T02:07:43.270Z,1011.7
2017-11-03T02:08:44.886Z,1011.6
2017-11-03T02:09:46.498Z,1011.6
2017-11-03T02:10:48.122Z,1011.6
2017-11-03T02:11:49.726Z,1011.6
2017-11-03T02:12:51.345Z,1011.6
2017-11-03T02:13:53.005Z,1011.6
2017-11-03T02:14:54.617Z,1011.7
2017-11-03T02:15:56.231Z,1011.6
2017-11-03T02:16:57.848Z,1011.6
2017-11-03T02:17:59.460Z,1011.6
2017-11-03T02:19:01.074Z,1011.6
2017-11-03T02:20:02.691Z,1011.6
2017-11-03T02:21:04.304Z,1011.6
2017-11-03T02:22:05.920Z,1011.7
2017-11-03T02:23:07.535Z,1011.7
2017-11-03T02:24:09.148Z,1011.7
2017-11-03T02:25:10.761Z,1011.7
2017-11-03T02:26:12.374Z,1011.7
2017-11-03T02:27:13.991Z,1011.7
2017-11-03T02:28:15.606Z,1011.7
2017-11-03T02:29:17.222Z,1011.7
2017-11-03T02:30:18.845Z,1011.6
2017-11-03T02:31:20.448Z,1011.7
2017-11-03T02:32:22.061Z,1011.7
2017-11-03T02:33:23.678Z,1011.6
2017-11-03T02:34:25.292Z,1011.6
2017-11-03T02:35:26.907Z,1011.6
2017-11-03T02:36:28.521Z,1011.6
2017-11-03T02:37:30.136Z,1011.6
2017-11-03T02:38:31.748Z,1011.6
2017-11-03T02:39:33.361Z,1011.6
2017-11-03T02:40:34.976Z,1011.6
2017-11-03T02:41:36.592Z,1011.6
2017-11-03T02:42:38.206Z,1011.6
2017-11-03T02:43:39.820Z,1011.6
2017-11-03T02:44:41.434Z,1011.6
2017-11-03T02:45:43.048Z,1011.6
2017-11-03T02:46:44.661Z,1011.6
2017-11-03T02:47:46.277Z,1011.6
2017-11-03T02:48:47.892Z,1011.6
2017-11-03T02:49:49.510Z,1011.7
2017-11-03T02:50:51.122Z,1011.6
2017-11-03T02:51:52.738Z,1011.6
2017-11-03T02:52:54.351Z,1011.6
2017-11-03T02:53:55.962Z,1011.6
2017-11-03T02:54:57.579Z,1011.7
2017-11-03T02:55:59.195Z,1011.7
2017-11-03T02:57:00.810Z,1011.7
2017-11-03T02:58:02.427Z,1011.7
2017-11-03T02:59:04.041Z,1011.7
2017-11-03T03:00:05.654Z,1011.7
2017-11-03T03:01:07.269Z,1011.7
2017-11-03T03:02:08.883Z,1011.7
2017-11-03T03:03:10.498Z,1011.7
2017-11-03T03:04:12.113Z,1011.7
2017-11-03T03:05:13.731Z,1011.7
2017-11-03T03:06:15.344Z,1011.7
2017-11-03T03:07:16.957Z,1011.7
2017-11-03T03:08:18.572Z,1011.7
2017-11-03T03:09:20.186Z,1011.7
2017-11-03T03:10:21.806Z,1011.7
2017-11-03T03:11:23.415Z,1011.7
2017-11-03T03:12:25.032Z,1011.7
2017-11-03T03:13:26.647Z,1011.7
2017-11-03T03:14:28.260Z,1011.7
2017-11-03T03:15:29.871Z,1011.7
2017-11-03T03:16:31.495Z,1011.7
2017-11-03T03:17:33.105Z,1011.7
2017-11-03T03:18:34.722Z,1011.7
2017-11-03T03:19:36.334Z,1011.7
2017-11-03T03:20:37.948Z,1011.7
2017-11-03T03:21:39.560Z,1011.7
2017-11-03T03:22:41.178Z,1011.7
2017-11-03T03:23:42.793Z,1011.7
2017-11-03T03:24:44.406Z,1011.7
2017-11-03T03:25:46.020Z,1011.7
2017-11-03T03:26:47.634Z,1011.7
2017-11-03T03:27:49.249Z,1011.7
2017-11-03T03:28:50.861Z,1011.7
2017-11-03T03:29:52.474Z,1011.7
2017-11-03T03:30:54.090Z,1011.7
2017-11-03T03:31:55.706Z,1011.7
2017-11-03T03:32:57.320Z,1011.7
2017-11-03T03:33:58.935Z,1011.7
2017-11-03T03:35:00.550Z,1011.7
2017-11-03T03:36:02.162Z,1011.8
2017-11-03T03:37:03.775Z,1011.8
2017-11-03T03:38:05.391Z,1011.7
2017-11-03T03:39:07.005Z,1011.7
2017-11-03T03:40:08.622Z,1011.7
2017-11-03T03:41:10.236Z,1011.7
2017-11-03T03:42:11.850Z,1011.7
2017-11-03T03:43:13.463Z,1011.7
2017-11-03T03:44:15.078Z,1011.7
2017-11-03T03:45:16.692Z,1011.7
2017-11-03T03:46:18.307Z,1011.7
2017-11-03T03:47:19.921Z,1011.7
2017-11-03T03:48:21.536Z,1011.8
2017-11-03T03:49:23.151Z,1011.7
2017-11-03T03:50:24.768Z,1011.7
2017-11-03T03:51:26.381Z,1011.7
2017-11-03T03:52:27.994Z,1011.7
2017-11-03T03:53:29.614Z,1011.7
2017-11-03T03:54:31.223Z,1011.7
2017-11-03T03:55:32.840Z,1011.7
2017-11-03T03:56:34.457Z,1011.8
2017-11-03T03:57:36.069Z,1011.7
2017-11-03T03:58:37.692Z,1011.8
2017-11-03T03:59:39.307Z,1011.7
2017-11-03T04:00:40.921Z,1011.8
2017-11-03T04:01:42.535Z,1011.7
2017-11-03T04:02:44.148Z,1011.7
2017-11-03T04:03:45.764Z,1011.7
2017-11-03T04:04:47.378Z,1011.7
2017-11-03T04:05:48.993Z,1011.7
2017-11-03T04:06:50.605Z,1011.7
2017-11-03T04:07:52.218Z,1011.7
2017-11-03T04:08:53.834Z,1011.7
2017-11-03T04:09:55.450Z,1011.8
2017-11-03T04:10:57.070Z,1011.7
2017-11-03T04:11:58.680Z,1011.7
2017-11-03T04:13:00.296Z,1011.8
2017-11-03T04:14:01.908Z,1011.8
2017-11-03T04:15:03.522Z,1011.8
2017-11-03T04:16:05.149Z,1011.8
2017-11-03T04:17:06.751Z,1011.8
2017-11-03T04:18:08.369Z,1011.8
2017-11-03T04:19:09.981Z,1011.8
2017-11-03T04:20:11.592Z,1011.8
2017-11-03T04:21:13.206Z,1011.8
2017-11-03T04:22:14.821Z,1011.7
2017-11-03T04:23:16.435Z,1011.7
2017-11-03T04:24:18.052Z,1011.7
2017-11-03T04:25:19.665Z,1011.7
2017-11-03T04:26:21.279Z,1011.7
2017-11-03T04:27:22.894Z,1011.8
2017-11-03T04:28:24.507Z,1011.8
2017-11-03T04:29:26.121Z,1011.8
2017-11-03T04:30:27.735Z,1011.7
2017-11-03T04:31:29.348Z,1011.7
2017-11-03T04:32:30.968Z,1011.7
2017-11-03T04:33:32.578Z,1011.7
2017-11-03T04:34:34.194Z,1011.7
2017-11-03T04:35:35.807Z,1011.7
2017-11-03T04:36:37.420Z,1011.7
2017-11-03T04:37:39.035Z,1011.7
2017-11-03T04:38:40.650Z,1011.7
2017-11-03T04:39:42.264Z,1011.7
2017-11-03T04:40:43.880Z,1011.7
2017-11-03T04:41:45.498Z,1011.7
2017-11-03T04:42:47.109Z,1011.7
2017-11-03T04:43:48.723Z,1011.7
2017-11-03T04:44:50.339Z,1011.7
2017-11-03T04:45:51.952Z,1011.7
2017-11-03T04:46:53.570Z,1011.7
2017-11-03T04:47:55.185Z,1011.7
2017-11-03T04:48:56.798Z,1011.7
2017-11-03T04:49:58.412Z,1011.7
2017-11-03T04:51:00.026Z,1011.7
2017-11-03T04:52:01.640Z,1011.7
2017-11-03T04:53:03.254Z,1011.7
2017-11-03T04:54:04.870Z,1011.7
2017-11-03T04:55:06.483Z,1011.7
2017-11-03T04:56:08.098Z,1011.7
2017-11-03T04:57:09.710Z,1011.7
2017-11-03T04:58:11.324Z,1011.7
2017-11-03T04:59:12.937Z,1011.7
2017-11-03T05:00:14.551Z,1011.7
2017-11-03T05:01:16.168Z,1011.7
2017-11-03T05:02:17.782Z,1011.7
2017-11-03T05:03:19.396Z,1011.7
2017-11-03T05:04:21.009Z,1011.7
2017-11-03T05:05:22.624Z,1011.7
2017-11-03T05:06:24.237Z,1011.7
2017-11-03T05:07:25.876Z,1011.7
2017-11-03T05:08:27.490Z,1011.7
2017-11-03T05:09:29.103Z,1011.7
2017-11-03T05:10:30.742Z,1011.7
2017-11-03T05:11:32.330Z,1011.7
2017-11-03T05:12:33.948Z,1011.7
2017-11-03T05:13:35.565Z,1011.6
2017-11-03T05:14:37.179Z,1011.6
2017-11-03T05:15:38.796Z,1011.6
2017-11-03T05:16:40.408Z,1011.6
2017-11-03T05:17:42.022Z,1011.6
2017-11-03T05:18:43.637Z,1011.6
2017-11-03T05:19:45.253Z,1011.6
2017-11-03T05:20:46.871Z,1011.6
2017-11-03T05:21:48.480Z,1011.6
2017-11-03T05:22:50.095Z,1011.6
2017-11-03T05:23:51.713Z,1011.5
2017-11-03T05:24:53.328Z,1011.6
2017-11-03T05:25:54.945Z,1011.6
2017-11-03T05:26:56.558Z,1011.6
2017-11-03T05:27:58.171Z,1011.5
2017-11-03T05:28:59.787Z,1011.5
2017-11-03T05:30:01.400Z,1011.6
2017-11-03T05:31:03.013Z,1011.6
2017-11-03T05:32:04.650Z,1011.6
2017-11-03T05:33:06.245Z,1011.6
2017-11-03T05:34:07.857Z,1011.6
2017-11-03T05:35:09.474Z,1011.6
2017-11-03T05:36:11.087Z,1011.6
2017-11-03T05:37:12.705Z,1011.6
2017-11-03T05:38:14.321Z,1011.6
2017-11-03T05:39:15.943Z,1011.5
2017-11-03T05:40:17.549Z,1011.6
2017-11-03T05:41:19.163Z,1011.6
2017-11-03T05:42:20.775Z,1011.6
2017-11-03T05:43:22.391Z,1011.6
2017-11-03T05:44:24.031Z,1011.6
2017-11-03T05:45:25.643Z,1011.6
2017-11-03T05:46:27.255Z,1011.6
2017-11-03T05:47:28.870Z,1011.6
2017-11-03T05:48:30.485Z,1011.6
2017-11-03T05:49:32.101Z,1011.6
2017-11-03T05:50:33.716Z,1011.6
2017-11-03T05:51:35.331Z,1011.6
2017-11-03T05:52:36.973Z,1011.6
2017-11-03T05:53:38.584Z,1011.6
2017-11-03T05:54:40.199Z,1011.6
2017-11-03T05:55:41.812Z,1011.6
2017-11-03T05:56:43.444Z,1011.6
2017-11-03T05:57:45.047Z,1011.6
2017-11-03T05:58:46.663Z,1011.6
2017-11-03T05:59:48.281Z,1011.6
2017-11-03T06:00:49.891Z,1011.7
2017-11-03T06:01:51.504Z,1011.7
2017-11-03T06:02:53.121Z,1011.7
2017-11-03T06:03:54.738Z,1011.6
2017-11-03T06:04:56.354Z,1011.7
2017-11-03T06:05:57.974Z,1011.7
2017-11-03T06:06:59.580Z,1011.6
2017-11-03T06:08:01.196Z,1011.7
2017-11-03T06:09:02.808Z,1011.7
2017-11-03T06:10:04.426Z,1011.6
2017-11-03T06:11:06.040Z,1011.6
2017-11-03T06:12:07.655Z,1011.6
2017-11-03T06:13:09.269Z,1011.6
2017-11-03T06:14:10.879Z,1011.6
2017-11-03T06:15:12.492Z,1011.6
2017-11-03T06:16:14.106Z,1011.6
2017-11-03T06:17:15.717Z,1011.6
2017-11-03T06:18:17.332Z,1011.6
2017-11-03T06:19:18.952Z,1011.6
2017-11-03T06:20:20.567Z,1011.7
2017-11-03T06:21:22.177Z,1011.7
2017-11-03T06:22:23.792Z,1011.7
2017-11-03T06:23:25.405Z,1011.7
2017-11-03T06:24:27.021Z,1011.7
2017-11-03T06:25:28.640Z,1011.7
2017-11-03T06:26:30.252Z,1011.7
2017-11-03T06:27:31.869Z,1011.7
2017-11-03T06:28:33.483Z,1011.7
2017-11-03T06:29:35.095Z,1011.7
2017-11-03T06:30:36.718Z,1011.7
2017-11-03T06:31:38.328Z,1011.7
2017-11-03T06:32:39.944Z,1011.7
2017-11-03T06:33:41.560Z,1011.7
2017-11-03T06:34:43.177Z,1011.8
2017-11-03T06:35:44.789Z,1011.8
2017-11-03T06:36:46.406Z,1011.7
2017-11-03T06:37:48.021Z,1011.7
2017-11-03T06:38:49.637Z,1011.7
2017-11-03T06:39:51.253Z,1011.8
2017-11-03T06:40:52.869Z,1011.8
2017-11-03T06:41:54.486Z,1011.8
2017-11-03T06:42:56.103Z,1011.8
2017-11-03T06:43:57.726Z,1011.8
2017-11-03T06:44:59.335Z,1011.9
2017-11-03T06:46:00.955Z,1011.9
2017-11-03T06:47:02.570Z,1011.9
2017-11-03T06:48:04.185Z,1011.8
2017-11-03T06:49:05.805Z,1011.9
2017-11-03T06:50:07.418Z,1011.9
2017-11-03T06:51:09.032Z,1011.9
2017-11-03T06:52:10.648Z,1011.9
2017-11-03T06:53:12.266Z,1011.9
2017-11-03T06:54:13.890Z,1011.9
2017-11-03T06:55:15.501Z,1011.9
2017-11-03T06:56:17.118Z,1011.9
2017-11-03T06:57:18.731Z,1011.9
2017-11-03T06:58:20.349Z,1011.9
2017-11-03T06:59:21.967Z,1012.0
2017-11-03T07:00:23.594Z,1011.9
2017-11-03T07:01:25.206Z,1012.0
2017-11-03T07:02:26.827Z,1012.0
2017-11-03T07:03:28.445Z,1012.0
2017-11-03T07:04:30.060Z,1012.0
2017-11-03T07:05:31.677Z,1012.0
2017-11-03T07:06:33.294Z,1012.0
2017-11-03T07:07:34.914Z,1012.0
2017-11-03T07:08:36.533Z,1012.0
2017-11-03T07:09:38.152Z,1012.0
2017-11-03T07:10:39.770Z,1012.0
2017-11-03T07:11:41.385Z,1012.0
2017-11-03T07:12:43.008Z,1012.0
2017-11-03T07:13:44.624Z,1012.1
2017-11-03T07:14:46.240Z,1012.0
2017-11-03T07:15:47.859Z,1012.1
2017-11-03T07:16:49.478Z,1012.0
2017-11-03T07:17:51.095Z,1012.1
2017-11-03T07:18:52.712Z,1012.1
2017-11-03T07:19:54.328Z,1012.1
2017-11-03T07:20:55.945Z,1012.1
2017-11-03T07:21:57.564Z,1012.0
2017-11-03T07:22:59.183Z,1012.1
2017-11-03T07:24:00.803Z,1012.0
2017-11-03T07:25:02.426Z,1012.1
2017-11-03T07:26:04.043Z,1012.1
2017-11-03T07:27:05.662Z,1012.1
2017-11-03T07:28:07.299Z,1012.1
2017-11-03T07:29:08.896Z,1012.2
2017-11-03T07:30:10.514Z,1012.2
2017-11-03T07:32:23.096Z,1012.2
2017-11-03T07:33:24.712Z,1012.2
2017-11-03T07:34:26.333Z,1012.2
2017-11-03T07:35:27.943Z,1012.2
2017-11-03T07:36:29.561Z,1012.2
2017-11-03T07:37:31.180Z,1012.2
2017-11-03T07:38:32.800Z,1012.2
2017-11-03T07:39:34.418Z,1012.2
2017-11-03T07:40:36.037Z,1012.2
2017-11-03T07:41:37.650Z,1012.2
2017-11-03T07:42:39.266Z,1012.2
2017-11-03T07:43:40.884Z,1012.2
2017-11-03T07:44:42.509Z,1012.2
2017-11-03T07:45:44.125Z,1012.2
2017-11-03T07:46:45.746Z,1012.2
2017-11-03T07:47:47.361Z,1012.2
2017-11-03T07:48:48.978Z,1012.2
2017-11-03T07:49:50.594Z,1012.2
2017-11-03T07:50:52.214Z,1012.2
2017-11-03T07:51:53.832Z,1012.2
2017-11-03T07:52:55.450Z,1012.3
2017-11-03T07:53:57.068Z,1012.2
2017-11-03T07:54:58.683Z,1012.2
2017-11-03T07:56:00.301Z,1012.3
2017-11-03T07:57:01.917Z,1012.3
2017-11-03T07:58:03.535Z,1012.3
2017-11-03T07:59:05.151Z,1012.2
2017-11-03T08:00:06.770Z,1012.2
2017-11-03T08:01:08.389Z,1012.3
2017-11-03T08:02:10.004Z,1012.2
2017-11-03T08:03:11.630Z,1012.2
2017-11-03T08:04:13.235Z,1012.2
2017-11-03T08:05:14.855Z,1012.2
2017-11-03T08:06:16.473Z,1012.3
2017-11-03T08:07:18.111Z,1012.3
2017-11-03T08:08:19.730Z,1012.3
2017-11-03T08:09:21.347Z,1012.2
2017-11-03T08:10:22.958Z,1012.3
2017-11-03T08:11:24.578Z,1012.2
2017-11-03T08:12:26.200Z,1012.3
2017-11-03T08:13:27.817Z,1012.2
2017-11-03T08:14:29.434Z,1012.3
2017-11-03T08:15:31.053Z,1012.3
2017-11-03T08:16:32.671Z,1012.3
2017-11-03T08:17:34.286Z,1012.3
2017-11-03T08:18:35.903Z,1012.3
2017-11-03T08:19:37.520Z,1012.3
2017-11-03T08:20:39.137Z,1012.2
2017-11-03T08:21:40.755Z,1012.2
2017-11-03T08:22:42.376Z,1012.2
2017-11-03T08:23:43.991Z,1012.2
2017-11-03T08:24:45.607Z,1012.2
2017-11-03T08:25:47.226Z,1012.2
2017-11-03T08:26:48.844Z,1012.2
2017-11-03T08:27:50.463Z,1012.2
2017-11-03T08:28:52.082Z,1012.2
2017-11-03T08:29:53.706Z,1012.2
2017-11-03T08:30:55.322Z,1012.2
2017-11-03T08:31:56.938Z,1012.2
2017-11-03T08:32:58.557Z,1012.3
2017-11-03T08:34:00.175Z,1012.2
2017-11-03T08:35:01.796Z,1012.2
2017-11-03T08:36:03.421Z,1012.2
2017-11-03T08:37:05.040Z,1012.2
2017-11-03T08:38:06.650Z,1012.2
2017-11-03T08:39:08.269Z,1012.2
2017-11-03T08:40:09.887Z,1012.3
2017-11-03T08:41:13.240Z,1012.2
2017-11-03T08:42:14.951Z,1012.2
2017-11-03T08:43:16.581Z,1012.2
2017-11-03T08:44:18.203Z,1012.2
2017-11-03T08:45:19.835Z,1012.2
2017-11-03T08:46:21.455Z,1012.2
2017-11-03T08:47:23.075Z,1012.2
2017-11-03T08:48:24.695Z,1012.2
2017-11-03T08:49:26.315Z,1012.2
2017-11-03T08:50:27.934Z,1012.2
2017-11-03T08:51:29.553Z,1012.1
2017-11-03T08:52:31.171Z,1012.2
2017-11-03T08:53:32.788Z,1012.1
2017-11-03T08:54:34.408Z,1012.1
2017-11-03T08:55:36.027Z,1012.2
2017-11-03T08:56:37.645Z,1012.2
2017-11-03T08:57:39.267Z,1012.1
2017-11-03T08:58:40.885Z,1012.2
2017-11-03T08:59:42.501Z,1012.2
2017-11-03T09:00:44.116Z,1012.1
2017-11-03T09:01:45.740Z,1012.1
2017-11-03T09:02:47.356Z,1012.2
2017-11-03T09:03:48.976Z,1012.1
2017-11-03T09:04:50.593Z,1012.1
2017-11-03T09:05:52.217Z,1012.1
2017-11-03T09:06:53.865Z,1012.1
2017-11-03T09:07:55.485Z,1012.1
2017-11-03T09:08:57.102Z,1012.1
2017-11-03T09:09:58.721Z,1012.1
2017-11-03T09:11:00.340Z,1012.1
2017-11-03T09:12:02.002Z,1012.1
2017-11-03T09:13:03.624Z,1012.1
2017-11-03T09:14:05.240Z,1012.1
2017-11-03T09:15:06.859Z,1012.1
2017-11-03T09:16:08.477Z,1012.1
2017-11-03T09:17:10.093Z,1012.1
2017-11-03T09:18:11.718Z,1012.1
2017-11-03T09:19:13.338Z,1012.1
2017-11-03T09:20:14.957Z,1012.1
2017-11-03T09:21:16.572Z,1012.1
2017-11-03T09:22:18.191Z,1012.1
2017-11-03T09:23:19.808Z,1012.1
2017-11-03T09:24:21.429Z,1012.1
2017-11-03T09:25:23.047Z,1012.1
2017-11-03T09:26:24.666Z,1012.1
2017-11-03T09:27:26.289Z,1012.2
2017-11-03T09:28:27.909Z,1012.2
2017-11-03T09:29:29.525Z,1012.2
2017-11-03T09:30:31.147Z,1012.2
2017-11-03T09:31:32.767Z,1012.2
2017-11-03T09:32:34.398Z,1012.3
2017-11-03T09:33:36.018Z,1012.3
2017-11-03T09:34:37.639Z,1012.2
2017-11-03T09:35:39.257Z,1012.3
2017-11-03T09:36:40.875Z,1012.2
2017-11-03T09:37:42.495Z,1012.2
2017-11-03T09:38:44.116Z,1012.2
2017-11-03T09:39:45.734Z,1012.2
2017-11-03T09:40:47.353Z,1012.2
2017-11-03T09:41:49.014Z,1012.2
2017-11-03T09:42:50.718Z,1012.3
2017-11-03T09:43:52.334Z,1012.3
2017-11-03T09:44:53.952Z,1012.2
2017-11-03T09:45:55.570Z,1012.2
2017-11-03T09:46:57.191Z,1012.2
2017-11-03T09:47:58.811Z,1012.2
2017-11-03T09:49:00.432Z,1012.2
2017-11-03T09:50:02.049Z,1012.2
2017-11-03T09:51:03.673Z,1012.2
2017-11-03T09:52:05.283Z,1012.2
2017-11-03T09:53:06.902Z,1012.2
2017-11-03T09:54:08.519Z,1012.2
2017-11-03T09:55:10.139Z,1012.2
2017-11-03T09:56:11.760Z,1012.2
2017-11-03T09:57:13.375Z,1012.2
2017-11-03T09:58:14.993Z,1012.2
2017-11-03T09:59:16.611Z,1012.2
2017-11-03T10:00:18.232Z,1012.2
2017-11-03T10:01:19.850Z,1012.2
2017-11-03T10:02:21.470Z,1012.2
2017-11-03T10:03:23.090Z,1012.2
2017-11-03T10:04:24.709Z,1012.2
2017-11-03T10:05:26.328Z,1012.2
2017-11-03T10:06:27.945Z,1012.2
2017-11-03T10:07:29.565Z,1012.2
2017-11-03T10:08:31.188Z,1012.2
2017-11-03T10:09:32.809Z,1012.2
2017-11-03T10:10:34.429Z,1012.2
2017-11-03T10:11:36.047Z,1012.2
2017-11-03T10:12:37.665Z,1012.1
2017-11-03T10:13:39.294Z,1012.2
2017-11-03T10:14:40.915Z,1012.2
2017-11-03T10:15:42.535Z,1012.2
2017-11-03T10:16:44.157Z,1012.2
2017-11-03T10:17:45.776Z,1012.2
2017-11-03T10:18:47.394Z,1012.2
2017-11-03T10:19:49.013Z,1012.3
2017-11-03T10:20:50.638Z,1012.3
2017-11-03T10:21:52.250Z,1012.5
2017-11-03T10:22:53.869Z,1012.6
2017-11-03T10:23:55.489Z,1012.7
2017-11-03T10:24:57.108Z,1012.6
2017-11-03T10:25:58.727Z,1012.6
2017-11-03T10:27:00.345Z,1012.7
2017-11-03T10:28:01.964Z,1012.7
2017-11-03T10:29:03.584Z,1012.6
2017-11-03T10:30:05.203Z,1012.5
2017-11-03T10:31:06.823Z,1012.5
2017-11-03T10:32:08.446Z,1012.6
2017-11-03T10:33:10.083Z,1012.6
2017-11-03T10:34:11.702Z,1012.7
2017-11-03T10:35:13.325Z,1012.8
2017-11-03T10:36:14.945Z,1012.7
2017-11-03T10:37:16.566Z,1012.7
2017-11-03T10:38:18.187Z,1012.7
2017-11-03T10:39:19.808Z,1012.7
2017-11-03T10:40:21.426Z,1012.8
2017-11-03T10:41:24.616Z,1012.9
2017-11-03T10:42:26.601Z,1013.0
2017-11-03T10:43:27.938Z,1013.1
2017-11-03T10:44:29.560Z,1013.2
2017-11-03T10:45:31.181Z,1013.2
2017-11-03T10:46:32.804Z,1013.0
2017-11-03T10:47:34.483Z,1013.0
2017-11-03T10:48:36.105Z,1013.1
2017-11-03T10:49:37.724Z,1012.8
2017-11-03T10:50:39.345Z,1012.6
2017-11-03T10:51:40.971Z,1012.5
2017-11-03T10:52:42.591Z,1012.8
2017-11-03T10:53:44.718Z,1012.9
2017-11-03T10:54:46.196Z,1012.7
2017-11-03T10:55:47.815Z,1012.5
2017-11-03T10:56:50.483Z,1012.5
2017-11-03T10:57:52.112Z,1012.6
2017-11-03T10:58:54.760Z,1013.0
2017-11-03T10:59:56.381Z,1013.3
2017-11-03T11:00:58.003Z,1013.1
2017-11-03T11:01:59.623Z,1015.0
2017-11-03T11:03:01.244Z,1014.2
2017-11-03T11:04:02.865Z,1014.1
2017-11-03T11:05:04.824Z,1014.7
2017-11-03T11:06:06.669Z,1014.8
2017-11-03T11:07:08.419Z,1014.7
2017-11-03T11:08:10.042Z,1015.0
2017-11-03T11:09:11.665Z,1014.8
2017-11-03T11:10:13.289Z,1014.8
2017-11-03T11:11:14.925Z,1015.1
2017-11-03T11:12:16.548Z,1015.2
2017-11-03T11:13:18.172Z,1015.5
2017-11-03T11:14:19.798Z,1015.6
2017-11-03T11:15:21.424Z,1015.6
2017-11-03T11:16:23.051Z,1015.5
2017-11-03T11:17:24.675Z,1015.9
2017-11-03T11:18:26.354Z,1016.2
2017-11-03T11:19:28.308Z,1016.5
2017-11-03T11:20:30.119Z,1016.0
2017-11-03T11:21:32.051Z,1015.0
2017-11-03T11:22:33.637Z,1014.8
2017-11-03T11:23:35.254Z,1014.9
2017-11-03T11:24:36.880Z,1014.9
2017-11-03T11:25:38.505Z,1015.9
2017-11-03T11:26:40.133Z,1015.8
2017-11-03T11:27:41.760Z,1015.8
2017-11-03T11:28:43.385Z,1016.2
2017-11-03T11:29:45.014Z,1014.6
2017-11-03T11:30:46.640Z,1015.0
2017-11-03T11:31:48.265Z,1014.7
2017-11-03T11:32:50.671Z,1014.1
2017-11-03T11:33:52.383Z,1014.5
2017-11-03T11:34:54.692Z,1015.0
2017-11-03T11:35:57.367Z,1015.9
2017-11-03T11:36:58.993Z,1014.9
2017-11-03T11:38:00.619Z,1014.4
2017-11-03T11:39:02.244Z,1013.8
2017-11-03T11:40:03.869Z,1013.7
2017-11-03T11:41:06.027Z,1013.3
2017-11-03T11:42:07.712Z,1012.9
2017-11-03T11:43:09.333Z,1012.7
2017-11-03T11:44:10.959Z,1012.6
2017-11-03T11:45:13.031Z,1012.9
2017-11-03T11:46:14.657Z,1012.7
2017-11-03T11:47:16.311Z,1012.6
2017-11-03T11:48:17.935Z,1012.9
2017-11-03T11:49:19.562Z,1012.9
2017-11-03T11:50:21.186Z,1013.1
2017-11-03T11:51:23.530Z,1012.6
2017-11-03T11:52:25.588Z,1012.8
2017-11-03T11:53:27.330Z,1012.6
2017-11-03T11:54:28.948Z,1012.6
2017-11-03T11:55:30.577Z,1012.7
2017-11-03T11:56:32.200Z,1012.6
2017-11-03T11:57:33.827Z,1013.0
2017-11-03T11:58:35.456Z,1013.2
2017-11-03T11:59:37.082Z,1013.0
2017-11-03T12:00:38.703Z,1013.1
2017-11-03T12:01:40.330Z,1013.0
2017-11-03T12:02:42.548Z,1013.0
2017-11-03T12:03:44.173Z,1012.9
2017-11-03T12:04:45.800Z,1013.0
2017-11-03T12:05:47.426Z,1012.8
2017-11-03T12:06:49.652Z,1012.9
2017-11-03T12:07:51.274Z,1013.0
2017-11-03T12:08:52.904Z,1013.0
2017-11-03T12:09:54.525Z,1013.0
2017-11-03T12:10:56.150Z,1013.1
2017-11-03T12:11:59.653Z,1013.1
2017-11-03T12:13:01.295Z,1013.2
2017-11-03T12:14:02.873Z,1013.1
2017-11-03T12:15:05.551Z,1012.7
2017-11-03T12:16:07.089Z,1012.9
2017-11-03T12:17:08.716Z,1013.0
2017-11-03T12:18:10.343Z,1013.2
2017-11-03T12:19:11.970Z,1013.2
2017-11-03T12:20:13.597Z,1013.2
2017-11-03T12:21:15.225Z,1013.1
2017-11-03T12:22:16.852Z,1012.9
2017-11-03T12:23:18.474Z,1013.0
2017-11-03T12:24:20.109Z,1012.9
2017-11-03T12:25:21.734Z,1012.9
2017-11-03T12:26:23.365Z,1012.9
2017-11-03T12:27:24.990Z,1012.8
2017-11-03T12:28:26.618Z,1012.8
2017-11-03T12:29:28.923Z,1012.9
2017-11-03T12:30:30.554Z,1012.8
2017-11-03T12:31:32.178Z,1012.8
2017-11-03T12:32:34.277Z,1012.8
2017-11-03T12:33:35.907Z,1012.9
2017-11-03T12:34:37.536Z,1012.8
2017-11-03T12:35:39.162Z,1012.8
2017-11-03T12:36:40.787Z,1012.7
2017-11-03T12:37:43.158Z,1012.7
2017-11-03T12:38:44.786Z,1012.7
2017-11-03T12:39:47.686Z,1012.7
2017-11-03T12:40:49.317Z,1012.7
2017-11-03T12:41:52.185Z,1012.7
2017-11-03T12:42:55.270Z,1012.6
2017-11-03T12:43:56.896Z,1012.6
2017-11-03T12:44:59.546Z,1012.6
2017-11-03T12:46:01.399Z,1012.5
2017-11-03T12:47:03.027Z,1012.5
2017-11-03T12:48:05.053Z,1012.5
2017-11-03T12:49:07.184Z,1012.5
2017-11-03T12:50:08.813Z,1012.5